Terminal Aerodrome Forecast
Issued by NWS

Home | Current Version | Previous Version | Text Only | Print | Product List | Glossary On
Versions: 1 2 3 4 5 6 7 8 9 10 11 12 13 14 15 16 17
000
FTUS46 KMFR 282337
TAFOTH
TAF
KOTH 282337Z 2900/2924 31008KT P6SM BKN120
     FM291000 15003KT P6SM SCT012 BKN120
     FM291400 15003KT 5SM BR BKN012
     FM292100 29007KT P6SM FEW020=

USA.gov is the U.S. government's official web portal to all federal, state and local government web resources and services.